createdAt,value
2023-03-26T00:00:14.356Z,124.30
2023-03-26T00:01:14.349Z,122.80
2023-03-26T00:02:14.436Z,126.90
2023-03-26T00:03:14.470Z,118.30
2023-03-26T00:04:14.371Z,112.10
2023-03-26T00:05:14.385Z,116.30
2023-03-26T00:06:14.349Z,118.20
2023-03-26T00:07:14.925Z,114.30
2023-03-26T00:08:14.338Z,106.70
2023-03-26T00:09:14.320Z,112.80
2023-03-26T00:10:14.308Z,116.70
2023-03-26T00:11:14.302Z,122.50
2023-03-26T00:12:14.286Z,108.40
2023-03-26T00:13:14.302Z,111.00
2023-03-26T00:14:14.316Z,112.00
2023-03-26T00:15:14.258Z,111.70
2023-03-26T00:16:14.256Z,108.80
2023-03-26T00:17:14.244Z,102.10
2023-03-26T00:18:14.246Z,111.40
2023-03-26T00:19:14.215Z,102.00
2023-03-26T00:20:14.192Z,112.10
2023-03-26T00:21:14.177Z,98.40
2023-03-26T00:22:14.174Z,98.00
2023-03-26T00:23:14.208Z,94.40
2023-03-26T00:24:14.149Z,97.80
2023-03-26T00:25:14.783Z,106.20
2023-03-26T00:26:14.191Z,104.70
2023-03-26T00:27:14.653Z,105.50
2023-03-26T00:28:14.172Z,105.60
2023-03-26T00:29:14.132Z,89.10
2023-03-26T00:30:14.092Z,85.00
2023-03-26T00:31:14.090Z,96.20
2023-03-26T00:32:14.076Z,81.40
2023-03-26T00:33:14.081Z,87.10
2023-03-26T00:34:14.054Z,99.10
2023-03-26T00:35:14.089Z,99.60
2023-03-26T00:36:14.077Z,104.10
2023-03-26T00:37:14.032Z,93.70
2023-03-26T00:38:14.052Z,99.70
2023-03-26T00:39:14.020Z,92.30
2023-03-26T00:40:14.028Z,92.70
2023-03-26T00:41:13.968Z,86.80
2023-03-26T00:42:13.966Z,87.00
2023-03-26T00:43:13.976Z,96.60
2023-03-26T00:44:13.954Z,87.20
2023-03-26T00:45:13.939Z,94.60
2023-03-26T00:46:13.978Z,98.10
2023-03-26T00:47:13.917Z,97.10
2023-03-26T00:48:13.940Z,88.20
2023-03-26T00:49:13.893Z,88.10
2023-03-26T00:50:13.897Z,94.30
2023-03-26T00:51:13.865Z,91.40
2023-03-26T00:52:13.877Z,86.80
2023-03-26T00:53:13.851Z,92.60
2023-03-26T00:54:13.862Z,81.60
2023-03-26T00:55:13.834Z,95.80
2023-03-26T00:56:13.817Z,100.80
2023-03-26T00:57:20.196Z,91.30
2023-03-26T00:58:13.808Z,96.00
2023-03-26T00:59:13.828Z,98.50
2023-03-26T01:00:13.800Z,96.30
2023-03-26T01:01:13.960Z,90.70
2023-03-26T01:02:13.794Z,94.10
2023-03-26T01:03:21.882Z,95.90
2023-03-26T01:04:13.870Z,91.20
2023-03-26T01:05:13.747Z,80.80
2023-03-26T01:06:13.721Z,79.90
2023-03-26T01:07:13.711Z,79.40
2023-03-26T01:08:13.706Z,81.30
2023-03-26T01:09:13.723Z,86.90
2023-03-26T01:10:13.667Z,93.20
2023-03-26T01:11:13.657Z,94.80
2023-03-26T01:12:13.688Z,97.50
2023-03-26T01:13:13.642Z,94.30
2023-03-26T01:14:13.661Z,101.40
2023-03-26T01:15:13.628Z,96.60
2023-03-26T01:16:13.689Z,99.10
2023-03-26T01:17:13.591Z,95.30
2023-03-26T01:18:13.618Z,93.90
2023-03-26T01:19:13.606Z,94.50
2023-03-26T01:20:13.578Z,84.80
2023-03-26T01:21:13.541Z,98.20
2023-03-26T01:22:13.555Z,95.80
2023-03-26T01:23:13.528Z,101.80
2023-03-26T01:24:13.581Z,85.70
2023-03-26T01:25:13.518Z,91.40
2023-03-26T01:26:13.515Z,81.70
2023-03-26T01:27:13.479Z,88.10
2023-03-26T01:28:13.471Z,84.10
2023-03-26T01:29:13.491Z,97.50
2023-03-26T01:30:13.447Z,92.00
2023-03-26T01:31:13.457Z,85.10
2023-03-26T01:32:13.555Z,89.80
2023-03-26T01:33:13.545Z,101.70
2023-03-26T01:34:13.432Z,99.30
2023-03-26T01:35:13.413Z,91.40
2023-03-26T01:36:13.384Z,92.80
2023-03-26T01:37:13.416Z,92.30
2023-03-26T01:38:13.371Z,93.50
2023-03-26T01:39:13.418Z,99.40
2023-03-26T01:40:13.390Z,103.00
2023-03-26T01:41:13.383Z,99.90
2023-03-26T01:42:13.323Z,107.50
2023-03-26T01:43:13.319Z,108.00
2023-03-26T01:44:19.794Z,107.50
2023-03-26T01:45:13.324Z,102.40
2023-03-26T01:46:13.315Z,92.70
2023-03-26T01:47:19.768Z,93.80
2023-03-26T01:48:19.764Z,98.40
2023-03-26T01:49:13.625Z,86.50
2023-03-26T01:50:21.119Z,96.30
2023-03-26T01:51:13.229Z,99.70
2023-03-26T01:52:19.734Z,96.00
2023-03-26T01:53:13.218Z,97.70
2023-03-26T01:54:19.745Z,101.00
2023-03-26T01:55:21.694Z,102.50
2023-03-26T01:56:13.188Z,104.30
2023-03-26T01:57:13.200Z,101.90
2023-03-26T01:58:13.152Z,97.90
2023-03-26T01:59:13.164Z,95.60
2023-03-26T02:00:13.165Z,101.30
2023-03-26T02:01:13.191Z,103.70
2023-03-26T02:02:13.171Z,96.70
2023-03-26T02:03:13.153Z,107.20
2023-03-26T02:04:13.095Z,105.40
2023-03-26T02:05:13.142Z,93.60
2023-03-26T02:06:13.071Z,92.30
2023-03-26T02:07:13.085Z,98.20
2023-03-26T02:08:13.054Z,110.10
2023-03-26T02:09:13.052Z,97.30
2023-03-26T02:10:13.085Z,104.70
2023-03-26T02:11:13.231Z,105.00
2023-03-26T02:12:13.010Z,109.90
2023-03-26T02:13:13.001Z,115.10
2023-03-26T02:14:12.994Z,104.30
2023-03-26T02:15:12.998Z,111.20
2023-03-26T02:16:13.022Z,119.30
2023-03-26T02:17:12.967Z,103.30
2023-03-26T02:18:12.942Z,113.30
2023-03-26T02:19:12.948Z,109.00
2023-03-26T02:20:12.966Z,117.40
2023-03-26T02:21:12.950Z,121.20
2023-03-26T02:22:12.904Z,125.00
2023-03-26T02:23:12.894Z,107.30
2023-03-26T02:24:12.902Z,103.10
2023-03-26T02:25:12.866Z,105.40
2023-03-26T02:26:13.107Z,118.30
2023-03-26T02:27:12.885Z,112.70
2023-03-26T02:28:12.852Z,114.10
2023-03-26T02:29:12.829Z,108.80
2023-03-26T02:30:12.830Z,115.30
2023-03-26T02:31:12.853Z,103.60
2023-03-26T02:32:12.796Z,108.80
2023-03-26T02:33:12.786Z,104.50
2023-03-26T02:34:12.788Z,106.30
2023-03-26T02:35:12.959Z,107.60
2023-03-26T02:36:12.845Z,123.50
2023-03-26T02:37:12.741Z,113.60
2023-03-26T02:38:12.728Z,112.70
2023-03-26T02:39:12.716Z,115.40
2023-03-26T02:40:12.724Z,103.40
2023-03-26T02:41:12.719Z,116.30
2023-03-26T02:42:12.689Z,116.70
2023-03-26T02:43:12.671Z,111.10
2023-03-26T02:44:12.668Z,114.00
2023-03-26T02:45:12.654Z,104.90
2023-03-26T02:46:12.730Z,100.50
2023-03-26T02:47:12.653Z,97.60
2023-03-26T02:48:12.650Z,102.50
2023-03-26T02:49:12.672Z,103.50
2023-03-26T02:50:12.610Z,110.10
2023-03-26T02:51:12.611Z,109.20
2023-03-26T02:52:12.597Z,100.70
2023-03-26T02:53:12.589Z,98.30
2023-03-26T02:54:12.593Z,106.70
2023-03-26T02:55:12.564Z,99.70
2023-03-26T02:56:12.563Z,98.30
2023-03-26T02:57:12.573Z,100.60
2023-03-26T02:58:12.525Z,105.30
2023-03-26T02:59:12.511Z,105.00
2023-03-26T03:00:12.526Z,101.40
2023-03-26T03:01:12.606Z,101.00
2023-03-26T03:02:12.505Z,98.10
2023-03-26T03:03:12.483Z,100.70
2023-03-26T03:04:12.493Z,99.30
2023-03-26T03:05:12.478Z,107.80
2023-03-26T03:06:12.457Z,100.20
2023-03-26T03:07:12.463Z,102.60
2023-03-26T03:08:12.427Z,109.40
2023-03-26T03:09:12.426Z,101.40
2023-03-26T03:10:12.434Z,99.50
2023-03-26T03:11:12.411Z,99.60
2023-03-26T03:12:12.396Z,96.50
2023-03-26T03:13:12.358Z,99.30
2023-03-26T03:14:12.368Z,105.30
2023-03-26T03:15:12.393Z,100.70
2023-03-26T03:16:12.366Z,97.20
2023-03-26T03:17:12.350Z,102.40
2023-03-26T03:18:12.325Z,101.90
2023-03-26T03:19:12.298Z,106.20
2023-03-26T03:20:12.317Z,110.30
2023-03-26T03:21:12.281Z,104.80
2023-03-26T03:22:12.309Z,101.20
2023-03-26T03:23:12.281Z,95.00
2023-03-26T03:24:12.273Z,102.00
2023-03-26T03:25:12.234Z,106.30
2023-03-26T03:26:12.225Z,110.00
2023-03-26T03:27:12.259Z,113.10
2023-03-26T03:28:12.224Z,105.00
2023-03-26T03:29:12.200Z,102.80
2023-03-26T03:30:12.193Z,101.40
2023-03-26T03:31:12.205Z,109.90
2023-03-26T03:32:12.189Z,114.90
2023-03-26T03:33:12.150Z,107.90
2023-03-26T03:34:12.147Z,110.40
2023-03-26T03:35:12.144Z,109.50
2023-03-26T03:36:20.490Z,103.60
2023-03-26T03:37:12.141Z,113.80
2023-03-26T03:38:12.108Z,104.30
2023-03-26T03:39:12.104Z,105.30
2023-03-26T03:40:12.092Z,111.20
2023-03-26T03:41:12.083Z,111.30
2023-03-26T03:42:12.100Z,108.30
2023-03-26T03:43:12.057Z,103.10
2023-03-26T03:44:12.045Z,101.10
2023-03-26T03:45:12.031Z,104.80
2023-03-26T03:46:12.102Z,105.60
2023-03-26T03:47:12.045Z,104.60
2023-03-26T03:48:12.029Z,107.50
2023-03-26T03:49:12.016Z,115.00
2023-03-26T03:50:12.012Z,115.00
2023-03-26T03:51:11.967Z,102.40
2023-03-26T03:52:12.003Z,103.70
2023-03-26T03:53:11.949Z,99.80
2023-03-26T03:54:11.955Z,100.00
2023-03-26T03:55:11.979Z,101.00
2023-03-26T03:56:11.931Z,89.40
2023-03-26T03:57:12.017Z,101.30
2023-03-26T03:58:11.922Z,104.90
2023-03-26T03:59:11.889Z,105.60
2023-03-26T04:00:11.888Z,99.70
2023-03-26T04:01:11.859Z,103.60
2023-03-26T04:02:11.952Z,102.70
2023-03-26T04:03:11.929Z,100.20
2023-03-26T04:04:11.895Z,104.40
2023-03-26T04:05:11.824Z,93.00
2023-03-26T04:06:11.825Z,93.70
2023-03-26T04:07:11.811Z,96.30
2023-03-26T04:08:11.835Z,106.20
2023-03-26T04:09:11.795Z,93.70
2023-03-26T04:10:11.772Z,90.10
2023-03-26T04:11:11.775Z,98.40
2023-03-26T04:12:11.764Z,95.60
2023-03-26T04:13:11.765Z,101.60
2023-03-26T04:14:11.726Z,91.60
2023-03-26T04:15:11.716Z,85.10
2023-03-26T04:16:11.822Z,87.60
2023-03-26T04:17:11.724Z,91.40
2023-03-26T04:18:11.713Z,88.80
2023-03-26T04:19:11.695Z,86.90
2023-03-26T04:20:11.691Z,93.40
2023-03-26T04:21:11.658Z,86.30
2023-03-26T04:22:11.655Z,89.00
2023-03-26T04:23:11.662Z,89.30
2023-03-26T04:24:11.631Z,78.30
2023-03-26T04:25:11.692Z,78.90
2023-03-26T04:26:11.604Z,83.00
2023-03-26T04:27:11.589Z,82.40
2023-03-26T04:28:11.608Z,83.70
2023-03-26T04:29:11.570Z,89.80
2023-03-26T04:30:11.576Z,91.10
2023-03-26T04:31:11.600Z,83.40
2023-03-26T04:32:11.548Z,87.20
2023-03-26T04:33:11.581Z,89.80
2023-03-26T04:34:11.537Z,89.90
2023-03-26T04:35:11.592Z,94.70
2023-03-26T04:36:11.552Z,91.60
2023-03-26T04:37:11.504Z,89.30
2023-03-26T04:38:11.523Z,86.00
2023-03-26T04:39:11.472Z,99.60
2023-03-26T04:40:11.519Z,89.70
2023-03-26T04:41:11.463Z,83.40
2023-03-26T04:42:11.455Z,82.20
2023-03-26T04:43:11.453Z,78.90
2023-03-26T04:44:11.434Z,85.90
2023-03-26T04:45:11.400Z,100.30
2023-03-26T04:46:11.464Z,86.80
2023-03-26T04:47:11.380Z,76.00
2023-03-26T04:48:11.382Z,84.40
2023-03-26T04:49:11.415Z,77.90
2023-03-26T04:50:11.378Z,84.50
2023-03-26T04:51:11.352Z,79.20
2023-03-26T04:52:11.281Z,84.20
2023-03-26T04:53:11.321Z,86.30
2023-03-26T04:54:11.301Z,83.40
2023-03-26T04:55:11.251Z,85.20
2023-03-26T04:56:11.252Z,93.60
2023-03-26T04:57:11.299Z,84.50
2023-03-26T04:58:11.223Z,89.50
2023-03-26T04:59:11.223Z,79.30
2023-03-26T05:00:11.277Z,81.20
2023-03-26T05:01:11.320Z,78.80
2023-03-26T05:02:11.195Z,84.30
2023-03-26T05:03:11.202Z,85.80
2023-03-26T05:04:11.280Z,85.30
2023-03-26T05:05:11.198Z,87.70
2023-03-26T05:06:11.198Z,75.90
2023-03-26T05:07:11.112Z,72.50
2023-03-26T05:08:11.145Z,82.10
2023-03-26T05:09:11.161Z,77.90
2023-03-26T05:10:11.152Z,82.80
2023-03-26T05:11:11.152Z,75.30
2023-03-26T05:12:11.164Z,74.40
2023-03-26T05:13:11.114Z,73.40
2023-03-26T05:14:11.074Z,72.90
2023-03-26T05:15:11.321Z,80.60
2023-03-26T05:16:11.086Z,91.40
2023-03-26T05:17:11.027Z,80.80
2023-03-26T05:18:11.054Z,72.70
2023-03-26T05:19:11.029Z,82.80
2023-03-26T05:20:10.987Z,89.60
2023-03-26T05:21:10.966Z,77.60
2023-03-26T05:22:10.964Z,76.10
2023-03-26T05:23:10.980Z,79.80
2023-03-26T05:24:10.982Z,83.20
2023-03-26T05:25:10.935Z,80.40
2023-03-26T05:26:10.934Z,81.80
2023-03-26T05:27:10.932Z,75.70
2023-03-26T05:28:10.918Z,72.60
2023-03-26T05:29:10.916Z,85.60
2023-03-26T05:30:10.906Z,84.10
2023-03-26T05:31:10.865Z,90.00
2023-03-26T05:32:10.860Z,82.00
2023-03-26T05:33:10.913Z,75.90
2023-03-26T05:34:10.889Z,77.70
2023-03-26T05:35:10.858Z,89.00
2023-03-26T05:36:10.833Z,83.50
2023-03-26T05:37:10.824Z,77.50
2023-03-26T05:38:10.804Z,76.40
2023-03-26T05:39:10.945Z,79.00
2023-03-26T05:40:10.806Z,87.20
2023-03-26T05:41:10.780Z,87.00
2023-03-26T05:42:10.767Z,74.30
2023-03-26T05:43:10.747Z,72.40
2023-03-26T05:44:10.754Z,74.30
2023-03-26T05:45:10.788Z,77.30
2023-03-26T05:46:10.851Z,76.40
2023-03-26T05:47:10.718Z,89.80
2023-03-26T05:48:10.749Z,81.20
2023-03-26T05:49:10.711Z,83.90
2023-03-26T05:50:10.679Z,98.40
2023-03-26T05:51:10.683Z,77.20
2023-03-26T05:52:10.658Z,80.40
2023-03-26T05:53:10.649Z,91.00
2023-03-26T05:54:10.669Z,87.40
2023-03-26T05:55:10.660Z,79.60
2023-03-26T05:56:10.607Z,74.50
2023-03-26T05:57:10.670Z,83.00
2023-03-26T05:58:10.606Z,91.30
2023-03-26T05:59:10.622Z,89.90
2023-03-26T06:00:10.575Z,85.70
2023-03-26T06:01:10.582Z,77.40
2023-03-26T06:02:10.551Z,74.30
2023-03-26T06:03:10.658Z,74.50
2023-03-26T06:04:10.617Z,73.10
2023-03-26T06:05:10.526Z,69.50
2023-03-26T06:06:10.515Z,78.50
2023-03-26T06:07:10.522Z,66.30
2023-03-26T06:08:10.502Z,63.60
2023-03-26T06:09:10.489Z,68.90
2023-03-26T06:10:10.484Z,75.30
2023-03-26T06:11:10.478Z,75.80
2023-03-26T06:12:10.466Z,80.70
2023-03-26T06:13:10.470Z,71.30
2023-03-26T06:14:10.432Z,78.60
2023-03-26T06:15:10.471Z,66.20
2023-03-26T06:16:10.428Z,70.00
2023-03-26T06:17:10.446Z,72.00
2023-03-26T06:18:10.431Z,76.80
2023-03-26T06:19:10.405Z,77.70
2023-03-26T06:20:10.402Z,68.50
2023-03-26T06:21:10.354Z,62.40
2023-03-26T06:22:10.374Z,63.20
2023-03-26T06:23:10.337Z,72.90
2023-03-26T06:24:10.337Z,65.60
2023-03-26T06:25:10.337Z,74.50
2023-03-26T06:26:10.304Z,66.50
2023-03-26T06:27:10.314Z,58.20
2023-03-26T06:28:10.286Z,59.00
2023-03-26T06:29:10.269Z,59.40
2023-03-26T06:30:10.293Z,77.40
2023-03-26T06:31:10.321Z,66.00
2023-03-26T06:32:19.561Z,62.60
2023-03-26T06:33:10.242Z,53.20
2023-03-26T06:34:10.223Z,68.80
2023-03-26T06:35:16.727Z,65.30
2023-03-26T06:36:16.747Z,67.00
2023-03-26T06:37:16.697Z,73.90
2023-03-26T06:38:16.668Z,70.20
2023-03-26T06:39:16.646Z,58.30
2023-03-26T06:40:10.177Z,56.30
2023-03-26T06:41:10.148Z,52.00
2023-03-26T06:42:10.132Z,64.40
2023-03-26T06:43:11.111Z,64.30
2023-03-26T06:44:10.133Z,65.10
2023-03-26T06:45:10.141Z,63.30
2023-03-26T06:46:10.120Z,63.10
2023-03-26T06:47:10.227Z,70.20
2023-03-26T06:48:10.126Z,70.80
2023-03-26T06:49:10.067Z,76.60
2023-03-26T06:50:10.080Z,82.00
2023-03-26T06:51:10.066Z,83.60
2023-03-26T06:52:10.056Z,69.10
2023-03-26T06:53:10.022Z,68.90
2023-03-26T06:54:10.015Z,69.20
2023-03-26T06:55:10.023Z,74.00
2023-03-26T06:56:09.991Z,82.80
2023-03-26T06:57:10.012Z,70.60
2023-03-26T06:58:09.992Z,63.50
2023-03-26T06:59:09.987Z,76.10
2023-03-26T07:00:09.987Z,73.40
2023-03-26T07:01:09.993Z,73.10
2023-03-26T07:02:09.950Z,87.20
2023-03-26T07:03:09.925Z,85.50
2023-03-26T07:04:09.948Z,84.00
2023-03-26T07:05:09.897Z,84.10
2023-03-26T07:06:09.911Z,91.10
2023-03-26T07:07:09.898Z,92.70
2023-03-26T07:08:09.873Z,97.90
2023-03-26T07:09:09.870Z,95.20
2023-03-26T07:10:09.860Z,88.10
2023-03-26T07:11:09.864Z,77.00
2023-03-26T07:12:09.846Z,77.70
2023-03-26T07:13:09.819Z,87.60
2023-03-26T07:14:09.819Z,98.00
2023-03-26T07:15:09.793Z,99.40
2023-03-26T07:16:09.839Z,91.20
2023-03-26T07:17:10.058Z,86.70
2023-03-26T07:18:09.773Z,100.60
2023-03-26T07:19:09.802Z,87.50
2023-03-26T07:20:09.750Z,77.50
2023-03-26T07:21:09.756Z,76.50
2023-03-26T07:22:09.720Z,78.50
2023-03-26T07:23:09.718Z,77.60
2023-03-26T07:24:09.700Z,83.30
2023-03-26T07:25:09.710Z,79.70
2023-03-26T07:26:09.697Z,85.20
2023-03-26T07:27:09.726Z,81.70
2023-03-26T07:28:09.654Z,73.50
2023-03-26T07:29:09.654Z,75.00
2023-03-26T07:30:09.654Z,71.20
2023-03-26T07:31:09.658Z,78.40
2023-03-26T07:32:09.726Z,72.00
2023-03-26T07:33:09.643Z,75.40
2023-03-26T07:34:09.596Z,72.20
2023-03-26T07:35:09.589Z,64.90
2023-03-26T07:36:09.610Z,62.50
2023-03-26T07:37:09.582Z,67.20
2023-03-26T07:38:09.579Z,71.90
2023-03-26T07:39:09.569Z,78.60
2023-03-26T07:40:09.538Z,76.10
2023-03-26T07:41:09.544Z,74.10
2023-03-26T07:42:09.528Z,83.60
2023-03-26T07:43:09.524Z,83.30
2023-03-26T07:44:09.499Z,84.00
2023-03-26T07:45:09.508Z,86.90
2023-03-26T07:46:09.543Z,88.10
2023-03-26T07:47:09.478Z,87.90
2023-03-26T07:48:09.491Z,95.90
2023-03-26T07:49:09.448Z,92.60
2023-03-26T07:50:09.427Z,86.90
2023-03-26T07:51:09.444Z,90.80
2023-03-26T07:52:09.409Z,89.90
2023-03-26T07:53:09.414Z,96.20
2023-03-26T07:54:09.411Z,101.70
2023-03-26T07:55:09.376Z,91.50
2023-03-26T07:56:09.434Z,78.50
2023-03-26T07:57:09.473Z,83.00
2023-03-26T07:58:09.341Z,80.10
2023-03-26T07:59:09.328Z,83.20
2023-03-26T08:00:09.334Z,91.70
2023-03-26T08:01:09.352Z,99.30
2023-03-26T08:02:09.305Z,102.30
2023-03-26T08:03:09.400Z,114.70
2023-03-26T08:04:23.872Z,114.60
2023-03-26T08:05:09.351Z,109.30
2023-03-26T08:06:09.510Z,105.20
2023-03-26T08:07:09.266Z,115.10
2023-03-26T08:08:09.253Z,112.60
2023-03-26T08:09:09.235Z,114.10
2023-03-26T08:10:09.217Z,111.20
2023-03-26T08:11:09.218Z,112.90
2023-03-26T08:12:09.233Z,115.20
2023-03-26T08:13:09.194Z,112.30
2023-03-26T08:14:09.191Z,113.20
2023-03-26T08:15:09.172Z,109.80
2023-03-26T08:16:09.309Z,104.10
2023-03-26T08:17:09.170Z,101.40
2023-03-26T08:18:09.130Z,110.70
2023-03-26T08:19:09.123Z,112.60
2023-03-26T08:20:09.107Z,121.00
2023-03-26T08:21:09.120Z,112.10
2023-03-26T08:22:09.149Z,112.90
2023-03-26T08:23:09.074Z,118.70
2023-03-26T08:24:09.070Z,114.40
2023-03-26T08:25:09.066Z,129.80
2023-03-26T08:26:09.039Z,131.90
2023-03-26T08:27:09.094Z,127.20
2023-03-26T08:28:09.030Z,126.90
2023-03-26T08:29:09.042Z,129.20
2023-03-26T08:30:09.001Z,127.70
2023-03-26T08:31:09.052Z,130.00
2023-03-26T08:32:08.998Z,133.70
2023-03-26T08:33:09.012Z,128.20
2023-03-26T08:34:08.986Z,126.40
2023-03-26T08:35:08.989Z,122.40
2023-03-26T08:36:08.953Z,128.70
2023-03-26T08:37:08.963Z,120.50
2023-03-26T08:38:08.914Z,134.50
2023-03-26T08:39:08.924Z,141.10
2023-03-26T08:40:08.974Z,133.00
2023-03-26T08:41:08.926Z,124.80
2023-03-26T08:42:08.898Z,128.60
2023-03-26T08:43:08.876Z,136.10
2023-03-26T08:44:08.875Z,120.20
2023-03-26T08:45:08.859Z,119.10
2023-03-26T08:46:08.855Z,128.70
2023-03-26T08:47:08.889Z,136.90
2023-03-26T08:48:08.858Z,144.00
2023-03-26T08:49:08.804Z,147.80
2023-03-26T08:50:08.810Z,146.00
2023-03-26T08:51:08.805Z,139.20
2023-03-26T08:52:08.814Z,119.70
2023-03-26T08:53:08.780Z,104.40
2023-03-26T08:54:08.772Z,103.00
2023-03-26T08:55:08.781Z,117.10
2023-03-26T08:56:08.746Z,126.50
2023-03-26T08:57:08.851Z,127.20
2023-03-26T08:58:08.742Z,116.00
2023-03-26T08:59:08.719Z,105.20
2023-03-26T09:00:08.715Z,117.00
2023-03-26T09:01:08.717Z,125.30
2023-03-26T09:02:08.853Z,115.20
2023-03-26T09:03:08.694Z,116.00
2023-03-26T09:04:08.684Z,104.90
2023-03-26T09:05:08.637Z,112.90
2023-03-26T09:06:08.657Z,106.70
2023-03-26T09:07:08.659Z,104.00
2023-03-26T09:08:08.609Z,93.10
2023-03-26T09:09:08.607Z,94.90
2023-03-26T09:10:08.594Z,94.00
2023-03-26T09:11:08.583Z,80.50
2023-03-26T09:12:08.608Z,89.20
2023-03-26T09:13:08.555Z,83.40
2023-03-26T09:14:08.562Z,100.40
2023-03-26T09:15:08.539Z,99.40
2023-03-26T09:16:08.563Z,96.40
2023-03-26T09:17:08.567Z,90.50
2023-03-26T09:18:08.568Z,93.00
2023-03-26T09:19:08.499Z,100.10
2023-03-26T09:20:08.483Z,106.70
2023-03-26T09:21:08.489Z,99.70
2023-03-26T09:22:08.495Z,91.40
2023-03-26T09:23:08.811Z,100.10
2023-03-26T09:24:08.443Z,102.50
2023-03-26T09:25:08.455Z,100.90
2023-03-26T09:26:08.426Z,115.00
2023-03-26T09:27:08.462Z,114.70
2023-03-26T09:28:08.458Z,106.80
2023-03-26T09:29:08.416Z,105.80
2023-03-26T09:30:08.416Z,109.10
2023-03-26T09:31:08.465Z,101.10
2023-03-26T09:32:08.381Z,100.80
2023-03-26T09:33:08.411Z,94.20
2023-03-26T09:34:08.347Z,104.80
2023-03-26T09:35:08.375Z,88.20
2023-03-26T09:36:08.335Z,92.70
2023-03-26T09:37:08.334Z,103.90
2023-03-26T09:38:08.350Z,106.50
2023-03-26T09:39:08.306Z,105.40
2023-03-26T09:40:08.317Z,112.20
2023-03-26T09:41:08.271Z,108.10
2023-03-26T09:42:08.266Z,108.50
2023-03-26T09:43:10.624Z,110.30
2023-03-26T09:44:08.252Z,123.60
2023-03-26T09:45:08.232Z,117.10
2023-03-26T09:46:08.262Z,112.30
2023-03-26T09:47:08.208Z,132.60
2023-03-26T09:48:08.255Z,113.00
2023-03-26T09:49:08.186Z,116.90
2023-03-26T09:50:08.194Z,112.00
2023-03-26T09:51:08.171Z,114.00
2023-03-26T09:52:08.174Z,120.60
2023-03-26T09:53:08.180Z,115.80
2023-03-26T09:54:08.169Z,118.60
2023-03-26T09:55:08.127Z,124.70
2023-03-26T09:56:08.132Z,113.40
2023-03-26T09:57:08.136Z,106.00
2023-03-26T09:58:08.180Z,119.20
2023-03-26T09:59:08.115Z,113.70
2023-03-26T10:00:08.077Z,103.80
2023-03-26T10:01:08.128Z,120.20
2023-03-26T10:02:08.057Z,121.20
2023-03-26T10:03:08.717Z,124.00
2023-03-26T10:04:08.094Z,126.60
2023-03-26T10:05:08.096Z,117.10
2023-03-26T10:06:08.037Z,122.70
2023-03-26T10:07:08.056Z,114.10
2023-03-26T10:08:08.020Z,111.60
2023-03-26T10:09:08.013Z,114.10
2023-03-26T10:10:07.977Z,114.30
2023-03-26T10:11:07.971Z,130.60
2023-03-26T10:12:07.986Z,127.50
2023-03-26T10:13:14.407Z,139.60
2023-03-26T10:14:07.988Z,138.20
2023-03-26T10:15:07.961Z,148.80
2023-03-26T10:16:07.927Z,146.00
2023-03-26T10:17:07.935Z,149.70
2023-03-26T10:18:27.728Z,156.70
2023-03-26T10:19:07.914Z,131.00
2023-03-26T10:20:07.880Z,120.80
2023-03-26T10:21:07.868Z,118.00
2023-03-26T10:22:07.854Z,77.90
2023-03-26T10:23:07.840Z,92.30
2023-03-26T10:24:07.893Z,90.80
2023-03-26T10:25:07.820Z,112.10
2023-03-26T10:26:07.814Z,95.10
2023-03-26T10:27:09.751Z,89.10
2023-03-26T10:28:07.794Z,107.30
2023-03-26T10:29:07.788Z,131.50
2023-03-26T10:30:07.767Z,130.60
2023-03-26T10:31:07.799Z,125.30
2023-03-26T10:32:07.740Z,112.80
2023-03-26T10:33:07.818Z,121.70
2023-03-26T10:34:07.764Z,114.50
2023-03-26T10:35:07.773Z,124.90
2023-03-26T10:36:07.794Z,116.70
2023-03-26T10:37:07.738Z,107.70
2023-03-26T10:38:07.799Z,111.90
2023-03-26T10:39:07.754Z,122.00
2023-03-26T10:40:07.779Z,119.50
2023-03-26T10:41:07.684Z,119.10
2023-03-26T10:42:07.650Z,121.90
2023-03-26T10:43:07.637Z,128.30
2023-03-26T10:44:09.076Z,108.40
2023-03-26T10:45:07.637Z,113.30
2023-03-26T10:46:07.674Z,108.80
2023-03-26T10:47:07.583Z,120.70
2023-03-26T10:48:07.610Z,132.30
2023-03-26T10:49:07.587Z,124.40
2023-03-26T10:50:07.593Z,124.50
2023-03-26T10:51:07.581Z,119.50
2023-03-26T10:52:07.873Z,99.40
2023-03-26T10:53:07.538Z,112.10
2023-03-26T10:54:07.523Z,120.70
2023-03-26T10:55:07.528Z,128.00
2023-03-26T10:56:07.535Z,101.90
2023-03-26T10:57:07.536Z,106.60
2023-03-26T10:58:07.482Z,118.90
2023-03-26T10:59:07.458Z,117.20
2023-03-26T11:00:07.487Z,116.30
2023-03-26T11:01:07.490Z,126.70
2023-03-26T11:02:07.433Z,117.80
2023-03-26T11:03:07.461Z,130.70
2023-03-26T11:04:07.482Z,127.50
2023-03-26T11:05:07.461Z,130.40
2023-03-26T11:06:07.424Z,134.20
2023-03-26T11:07:07.404Z,129.80
2023-03-26T11:08:07.375Z,139.60
2023-03-26T11:09:07.363Z,143.90
2023-03-26T11:10:07.401Z,142.80
2023-03-26T11:11:07.373Z,136.30
2023-03-26T11:12:25.798Z,135.60
2023-03-26T11:13:07.341Z,147.30
2023-03-26T11:14:07.347Z,157.60
2023-03-26T11:15:07.334Z,163.70
2023-03-26T11:16:07.345Z,137.80
2023-03-26T11:17:07.291Z,135.60
2023-03-26T11:18:07.319Z,145.80
2023-03-26T11:19:07.286Z,134.00
2023-03-26T11:20:07.360Z,127.60
2023-03-26T11:21:19.950Z,134.30
2023-03-26T11:22:07.244Z,129.10
2023-03-26T11:23:07.299Z,128.30
2023-03-26T11:24:07.211Z,127.00
2023-03-26T11:25:07.207Z,118.10
2023-03-26T11:26:07.212Z,127.50
2023-03-26T11:27:15.452Z,129.00
2023-03-26T11:28:07.193Z,127.40
2023-03-26T11:29:31.114Z,117.50
2023-03-26T11:30:07.189Z,102.90
2023-03-26T11:31:07.181Z,113.20
2023-03-26T11:32:13.612Z,116.20
2023-03-26T11:33:07.107Z,125.60
2023-03-26T11:34:13.591Z,129.60
2023-03-26T11:35:13.595Z,115.40
2023-03-26T11:36:14.892Z,111.30
2023-03-26T11:37:13.563Z,110.30
2023-03-26T11:38:13.563Z,105.40
2023-03-26T11:39:07.053Z,85.10
2023-03-26T11:40:07.070Z,88.30
2023-03-26T11:41:07.060Z,109.70
2023-03-26T11:42:07.028Z,121.80
2023-03-26T11:43:07.008Z,130.50
2023-03-26T11:44:07.007Z,119.80
2023-03-26T11:45:07.057Z,108.60
2023-03-26T11:46:07.041Z,113.40
2023-03-26T11:47:07.010Z,108.50
2023-03-26T11:48:07.046Z,110.30
2023-03-26T11:49:06.987Z,99.00
2023-03-26T11:50:06.997Z,89.90
2023-03-26T11:51:07.028Z,101.20
2023-03-26T11:52:06.958Z,100.90
2023-03-26T11:53:06.911Z,115.20
2023-03-26T11:54:06.919Z,126.50
2023-03-26T11:55:06.888Z,112.80
2023-03-26T11:56:06.917Z,118.10
2023-03-26T11:57:07.399Z,107.70
2023-03-26T11:58:06.875Z,106.30
2023-03-26T11:59:06.838Z,125.10
2023-03-26T12:00:06.871Z,130.20
2023-03-26T12:01:06.839Z,128.50
2023-03-26T12:02:06.895Z,133.90
2023-03-26T12:03:06.847Z,128.50
2023-03-26T12:04:06.864Z,123.20
2023-03-26T12:05:06.774Z,124.50
2023-03-26T12:06:07.018Z,128.10
2023-03-26T12:07:06.757Z,144.90
2023-03-26T12:08:06.771Z,148.10
2023-03-26T12:09:06.757Z,139.20
2023-03-26T12:10:18.882Z,137.20
2023-03-26T12:11:06.777Z,136.80
2023-03-26T12:12:06.756Z,139.30
2023-03-26T12:13:06.734Z,130.90
2023-03-26T12:14:06.739Z,126.20
2023-03-26T12:15:06.675Z,134.30
2023-03-26T12:16:06.683Z,127.80
2023-03-26T12:17:06.732Z,136.00
2023-03-26T12:18:06.678Z,140.40
2023-03-26T12:19:06.645Z,148.80
2023-03-26T12:20:06.637Z,146.40
2023-03-26T12:21:08.363Z,119.70
2023-03-26T12:22:06.645Z,99.70
2023-03-26T12:23:06.591Z,86.80
2023-03-26T12:24:06.771Z,87.40
2023-03-26T12:25:06.589Z,91.00
2023-03-26T12:26:06.563Z,110.10
2023-03-26T12:27:06.594Z,103.20
2023-03-26T12:28:06.563Z,113.70
2023-03-26T12:29:06.522Z,105.40
2023-03-26T12:30:06.521Z,119.00
2023-03-26T12:31:06.653Z,108.30
2023-03-26T12:32:06.649Z,101.90
2023-03-26T12:33:06.534Z,106.00
2023-03-26T12:34:06.518Z,75.00
2023-03-26T12:35:06.467Z,62.40
2023-03-26T12:36:06.469Z,59.10
2023-03-26T12:37:06.483Z,52.30
2023-03-26T12:38:06.440Z,64.70
2023-03-26T12:39:15.977Z,77.10
2023-03-26T12:40:11.173Z,75.20